sensor_id;sensor_type;location;lat;lon;timestamp;pressure;altitude;pressure_sealevel;temperature;humidity
41044;BME280;51680;49.806;18.774;2023-09-07T00:01:27;98175.00;;;17.52;77.94
41044;BME280;51680;49.806;18.774;2023-09-07T00:04:29;98183.78;;;17.63;77.49
41044;BME280;51680;49.806;18.774;2023-09-07T00:07:31;98190.09;;;17.72;77.04
41044;BME280;51680;49.806;18.774;2023-09-07T00:10:33;98171.84;;;17.80;76.78
41044;BME280;51680;49.806;18.774;2023-09-07T00:13:37;98182.19;;;17.83;77.06
41044;BME280;51680;49.806;18.774;2023-09-07T00:16:38;98176.53;;;17.87;77.01
41044;BME280;51680;49.806;18.774;2023-09-07T00:19:40;98178.72;;;17.71;77.42
41044;BME280;51680;49.806;18.774;2023-09-07T00:22:42;98179.59;;;17.50;77.76
41044;BME280;51680;49.806;18.774;2023-09-07T00:25:43;98179.44;;;17.18;78.64
41044;BME280;51680;49.806;18.774;2023-09-07T00:28:46;98173.53;;;16.93;79.43
41044;BME280;51680;49.806;18.774;2023-09-07T00:31:48;98178.91;;;16.80;79.27
41044;BME280;51680;49.806;18.774;2023-09-07T00:34:50;98173.63;;;16.80;78.45
41044;BME280;51680;49.806;18.774;2023-09-07T00:37:52;98182.75;;;16.87;77.87
41044;BME280;51680;49.806;18.774;2023-09-07T00:40:55;98183.94;;;16.83;78.52
41044;BME280;51680;49.806;18.774;2023-09-07T00:43:58;98182.47;;;16.68;78.82
41044;BME280;51680;49.806;18.774;2023-09-07T00:46:59;98174.63;;;16.45;79.96
41044;BME280;51680;49.806;18.774;2023-09-07T00:50:02;98175.59;;;16.31;82.04
41044;BME280;51680;49.806;18.774;2023-09-07T00:53:07;98166.97;;;16.29;82.54
41044;BME280;51680;49.806;18.774;2023-09-07T00:56:09;98173.44;;;16.25;82.89
41044;BME280;51680;49.806;18.774;2023-09-07T00:59:13;98178.19;;;16.20;82.27
41044;BME280;51680;49.806;18.774;2023-09-07T01:02:14;98177.88;;;16.01;82.82
41044;BME280;51680;49.806;18.774;2023-09-07T01:05:16;98167.34;;;16.01;81.39
41044;BME280;51680;49.806;18.774;2023-09-07T01:08:24;98182.28;;;16.01;81.97
41044;BME280;51680;49.806;18.774;2023-09-07T01:11:35;98175.84;;;16.05;85.15
41044;BME280;51680;49.806;18.774;2023-09-07T01:14:57;98169.97;;;16.01;83.77
41044;BME280;51680;49.806;18.774;2023-09-07T01:18:00;98163.59;;;15.93;82.62
41044;BME280;51680;49.806;18.774;2023-09-07T01:21:02;98173.94;;;15.83;83.11
41044;BME280;51680;49.806;18.774;2023-09-07T01:24:08;98172.25;;;15.82;85.01
41044;BME280;51680;49.806;18.774;2023-09-07T01:27:10;98170.13;;;15.87;84.33
41044;BME280;51680;49.806;18.774;2023-09-07T01:30:13;98176.56;;;15.83;84.95
41044;BME280;51680;49.806;18.774;2023-09-07T01:33:17;98170.47;;;15.83;84.39
41044;BME280;51680;49.806;18.774;2023-09-07T01:36:19;98165.09;;;15.84;83.79
41044;BME280;51680;49.806;18.774;2023-09-07T01:39:22;98172.19;;;15.95;83.06
41044;BME280;51680;49.806;18.774;2023-09-07T01:42:24;98164.03;;;16.10;82.34
41044;BME280;51680;49.806;18.774;2023-09-07T01:45:26;98160.09;;;16.16;82.81
41044;BME280;51680;49.806;18.774;2023-09-07T01:48:27;98172.09;;;15.96;84.79
41044;BME280;51680;49.806;18.774;2023-09-07T01:51:29;98176.69;;;15.82;85.40
41044;BME280;51680;49.806;18.774;2023-09-07T01:54:32;98169.56;;;15.71;85.17
41044;BME280;51680;49.806;18.774;2023-09-07T01:57:34;98168.31;;;15.64;85.84
41044;BME280;51680;49.806;18.774;2023-09-07T02:00:36;98168.94;;;15.68;85.53
41044;BME280;51680;49.806;18.774;2023-09-07T02:03:39;98159.03;;;15.71;85.16
41044;BME280;51680;49.806;18.774;2023-09-07T02:06:40;98167.84;;;15.83;84.72
41044;BME280;51680;49.806;18.774;2023-09-07T02:10:03;98160.38;;;16.00;84.05
41044;BME280;51680;49.806;18.774;2023-09-07T02:13:04;98165.97;;;16.19;83.54
41044;BME280;51680;49.806;18.774;2023-09-07T02:16:06;98166.03;;;16.30;83.46
41044;BME280;51680;49.806;18.774;2023-09-07T02:19:09;98161.50;;;16.32;83.49
41044;BME280;51680;49.806;18.774;2023-09-07T02:22:11;98158.38;;;16.38;83.39
41044;BME280;51680;49.806;18.774;2023-09-07T02:25:14;98162.16;;;16.47;83.01
41044;BME280;51680;49.806;18.774;2023-09-07T02:28:16;98158.47;;;16.60;82.68
41044;BME280;51680;49.806;18.774;2023-09-07T02:31:18;98169.66;;;16.75;82.26
41044;BME280;51680;49.806;18.774;2023-09-07T02:34:20;98173.38;;;16.83;81.82
41044;BME280;51680;49.806;18.774;2023-09-07T02:37:22;98167.78;;;16.88;81.39
41044;BME280;51680;49.806;18.774;2023-09-07T02:40:25;98160.25;;;16.94;81.13
41044;BME280;51680;49.806;18.774;2023-09-07T02:43:27;98156.25;;;16.89;81.34
41044;BME280;51680;49.806;18.774;2023-09-07T02:46:28;98158.63;;;16.81;81.30
41044;BME280;51680;49.806;18.774;2023-09-07T02:49:31;98162.34;;;16.67;81.39
41044;BME280;51680;49.806;18.774;2023-09-07T02:52:33;98153.66;;;16.54;81.56
41044;BME280;51680;49.806;18.774;2023-09-07T02:55:40;98149.09;;;16.45;82.07
41044;BME280;51680;49.806;18.774;2023-09-07T02:58:42;98152.25;;;16.38;82.24
41044;BME280;51680;49.806;18.774;2023-09-07T03:01:44;98151.31;;;16.39;81.92
41044;BME280;51680;49.806;18.774;2023-09-07T03:04:46;98157.91;;;16.33;81.81
41044;BME280;51680;49.806;18.774;2023-09-07T03:07:47;98162.00;;;16.14;82.57
41044;BME280;51680;49.806;18.774;2023-09-07T03:10:54;98151.75;;;15.98;82.61
41044;BME280;51680;49.806;18.774;2023-09-07T03:13:56;98156.81;;;15.78;83.24
41044;BME280;51680;49.806;18.774;2023-09-07T03:16:58;98153.97;;;15.68;83.92
41044;BME280;51680;49.806;18.774;2023-09-07T03:20:00;98156.63;;;15.68;84.33
41044;BME280;51680;49.806;18.774;2023-09-07T03:23:06;98157.88;;;15.75;84.25
41044;BME280;51680;49.806;18.774;2023-09-07T03:26:11;98152.88;;;15.83;83.73
41044;BME280;51680;49.806;18.774;2023-09-07T03:29:14;98155.56;;;15.94;83.31
41044;BME280;51680;49.806;18.774;2023-09-07T03:32:16;98158.94;;;15.96;83.07
41044;BME280;51680;49.806;18.774;2023-09-07T03:35:36;98159.03;;;15.95;83.06
41044;BME280;51680;49.806;18.774;2023-09-07T03:38:38;98165.31;;;15.81;83.20
41044;BME280;51680;49.806;18.774;2023-09-07T03:41:41;98159.03;;;15.71;83.67
41044;BME280;51680;49.806;18.774;2023-09-07T03:44:43;98162.31;;;15.62;84.26
41044;BME280;51680;49.806;18.774;2023-09-07T03:48:05;98161.59;;;15.60;84.07
41044;BME280;51680;49.806;18.774;2023-09-07T03:51:07;98159.28;;;15.56;84.63
41044;BME280;51680;49.806;18.774;2023-09-07T03:54:09;98158.66;;;15.52;84.32
41044;BME280;51680;49.806;18.774;2023-09-07T03:57:12;98163.19;;;15.50;84.07
41044;BME280;51680;49.806;18.774;2023-09-07T04:00:32;98158.72;;;15.40;83.86
41044;BME280;51680;49.806;18.774;2023-09-07T04:03:34;98163.13;;;15.39;83.41
41044;BME280;51680;49.806;18.774;2023-09-07T04:06:35;98166.69;;;15.38;83.47
41044;BME280;51680;49.806;18.774;2023-09-07T04:09:37;98171.13;;;15.38;83.26
41044;BME280;51680;49.806;18.774;2023-09-07T04:12:40;98169.66;;;15.46;82.86
41044;BME280;51680;49.806;18.774;2023-09-07T04:15:44;98179.38;;;15.57;82.33
41044;BME280;51680;49.806;18.774;2023-09-07T04:18:47;98176.97;;;15.66;82.31
41044;BME280;51680;49.806;18.774;2023-09-07T04:21:49;98180.25;;;15.81;81.52
41044;BME280;51680;49.806;18.774;2023-09-07T04:24:51;98180.06;;;15.84;81.62
41044;BME280;51680;49.806;18.774;2023-09-07T04:27:54;98181.91;;;15.94;81.70
41044;BME280;51680;49.806;18.774;2023-09-07T04:30:57;98175.06;;;16.15;81.70
41044;BME280;51680;49.806;18.774;2023-09-07T04:33:58;98174.47;;;16.46;80.03
41044;BME280;51680;49.806;18.774;2023-09-07T04:37:01;98173.97;;;16.76;78.57
41044;BME280;51680;49.806;18.774;2023-09-07T04:40:05;98176.06;;;17.16;77.22
41044;BME280;51680;49.806;18.774;2023-09-07T04:43:08;98186.78;;;17.48;75.85
41044;BME280;51680;49.806;18.774;2023-09-07T04:46:10;98182.53;;;17.78;74.50
41044;BME280;51680;49.806;18.774;2023-09-07T04:49:12;98184.41;;;18.09;73.38
41044;BME280;51680;49.806;18.774;2023-09-07T04:52:14;98179.94;;;18.53;72.19
41044;BME280;51680;49.806;18.774;2023-09-07T04:55:16;98176.25;;;19.06;70.86
41044;BME280;51680;49.806;18.774;2023-09-07T04:58:19;98176.53;;;19.63;69.10
41044;BME280;51680;49.806;18.774;2023-09-07T05:01:21;98179.31;;;20.20;67.50
41044;BME280;51680;49.806;18.774;2023-09-07T05:04:25;98177.38;;;20.98;65.38
41044;BME280;51680;49.806;18.774;2023-09-07T05:07:27;98178.28;;;21.89;63.13
41044;BME280;51680;49.806;18.774;2023-09-07T05:10:28;98170.91;;;22.80;60.89
41044;BME280;51680;49.806;18.774;2023-09-07T05:13:31;98173.06;;;23.53;59.28
41044;BME280;51680;49.806;18.774;2023-09-07T05:16:35;98178.31;;;24.04;58.28
41044;BME280;51680;49.806;18.774;2023-09-07T05:19:37;98178.38;;;24.44;56.93
41044;BME280;51680;49.806;18.774;2023-09-07T05:22:39;98178.56;;;24.50;54.55
41044;BME280;51680;49.806;18.774;2023-09-07T05:25:45;98171.00;;;24.14;52.65
41044;BME280;51680;49.806;18.774;2023-09-07T05:28:49;98176.34;;;24.22;53.44
41044;BME280;51680;49.806;18.774;2023-09-07T05:32:09;98180.63;;;24.07;53.41
41044;BME280;51680;49.806;18.774;2023-09-07T05:35:11;98183.00;;;24.10;53.63
41044;BME280;51680;49.806;18.774;2023-09-07T05:38:18;98185.00;;;24.16;53.08
41044;BME280;51680;49.806;18.774;2023-09-07T05:41:20;98193.72;;;24.34;52.68
41044;BME280;51680;49.806;18.774;2023-09-07T05:44:23;98194.16;;;24.13;52.41
41044;BME280;51680;49.806;18.774;2023-09-07T05:47:25;98199.97;;;23.67;52.38
41044;BME280;51680;49.806;18.774;2023-09-07T05:50:27;98197.47;;;23.66;52.27
41044;BME280;51680;49.806;18.774;2023-09-07T05:53:28;98198.63;;;23.63;52.67
41044;BME280;51680;49.806;18.774;2023-09-07T05:56:30;98197.81;;;23.71;52.04
41044;BME280;51680;49.806;18.774;2023-09-07T05:59:35;98195.06;;;23.55;52.99
41044;BME280;51680;49.806;18.774;2023-09-07T06:02:37;98205.84;;;23.45;52.97
41044;BME280;51680;49.806;18.774;2023-09-07T06:05:38;98204.28;;;23.35;53.05
41044;BME280;51680;49.806;18.774;2023-09-07T06:08:42;98199.41;;;23.56;53.12
41044;BME280;51680;49.806;18.774;2023-09-07T06:11:44;98193.34;;;23.79;52.71
41044;BME280;51680;49.806;18.774;2023-09-07T06:14:48;98197.03;;;24.20;52.03
41044;BME280;51680;49.806;18.774;2023-09-07T06:17:49;98204.16;;;24.61;51.58
41044;BME280;51680;49.806;18.774;2023-09-07T06:20:55;98199.78;;;25.08;51.97
41044;BME280;51680;49.806;18.774;2023-09-07T06:23:57;98208.75;;;25.71;49.50
41044;BME280;51680;49.806;18.774;2023-09-07T06:27:17;98195.81;;;26.51;48.62
41044;BME280;51680;49.806;18.774;2023-09-07T06:30:21;98194.00;;;27.48;47.12
41044;BME280;51680;49.806;18.774;2023-09-07T06:33:23;98198.63;;;28.41;45.94
41044;BME280;51680;49.806;18.774;2023-09-07T06:36:25;98200.28;;;29.54;44.23
41044;BME280;51680;49.806;18.774;2023-09-07T06:39:27;98203.50;;;30.45;42.53
41044;BME280;51680;49.806;18.774;2023-09-07T06:42:29;98209.22;;;31.02;40.96
41044;BME280;51680;49.806;18.774;2023-09-07T06:45:39;98204.25;;;31.12;40.26
41044;BME280;51680;49.806;18.774;2023-09-07T06:48:40;98213.59;;;31.10;40.46
41044;BME280;51680;49.806;18.774;2023-09-07T06:51:42;98223.03;;;30.60;40.04
41044;BME280;51680;49.806;18.774;2023-09-07T06:54:44;98224.91;;;29.79;41.23
41044;BME280;51680;49.806;18.774;2023-09-07T06:57:46;98224.09;;;29.02;41.30
41044;BME280;51680;49.806;18.774;2023-09-07T07:00:49;98215.16;;;28.80;43.22
41044;BME280;51680;49.806;18.774;2023-09-07T07:03:51;98222.13;;;28.96;43.65
41044;BME280;51680;49.806;18.774;2023-09-07T07:06:55;98219.19;;;29.61;42.77
41044;BME280;51680;49.806;18.774;2023-09-07T07:09:56;98219.22;;;30.35;41.90
41044;BME280;51680;49.806;18.774;2023-09-07T07:12:58;98213.22;;;31.32;40.21
41044;BME280;51680;49.806;18.774;2023-09-07T07:16:02;98220.41;;;31.90;38.76
41044;BME280;51680;49.806;18.774;2023-09-07T07:19:04;98215.38;;;32.13;36.33
41044;BME280;51680;49.806;18.774;2023-09-07T07:22:06;98217.88;;;32.65;38.32
41044;BME280;51680;49.806;18.774;2023-09-07T07:25:10;98216.50;;;33.18;37.00
41044;BME280;51680;49.806;18.774;2023-09-07T07:28:12;98211.03;;;33.49;36.84
41044;BME280;51680;49.806;18.774;2023-09-07T07:31:15;98217.25;;;33.74;35.87
41044;BME280;51680;49.806;18.774;2023-09-07T07:34:19;98215.91;;;33.65;36.66
41044;BME280;51680;49.806;18.774;2023-09-07T07:37:21;98215.50;;;34.04;35.67
41044;BME280;51680;49.806;18.774;2023-09-07T07:40:24;98212.91;;;34.27;35.25
41044;BME280;51680;49.806;18.774;2023-09-07T07:43:25;98218.38;;;34.09;35.90
41044;BME280;51680;49.806;18.774;2023-09-07T07:46:29;98216.63;;;34.51;35.71
41044;BME280;51680;49.806;18.774;2023-09-07T07:49:31;98219.97;;;34.82;35.40
41044;BME280;51680;49.806;18.774;2023-09-07T07:52:33;98214.88;;;35.15;34.54
41044;BME280;51680;49.806;18.774;2023-09-07T07:55:36;98217.78;;;35.43;34.04
41044;BME280;51680;49.806;18.774;2023-09-07T07:58:40;98216.38;;;35.75;33.03
41044;BME280;51680;49.806;18.774;2023-09-07T08:01:43;98217.53;;;36.02;33.23
41044;BME280;51680;49.806;18.774;2023-09-07T08:04:45;98217.28;;;36.15;31.16
41044;BME280;51680;49.806;18.774;2023-09-07T08:07:48;98225.81;;;35.84;34.07
41044;BME280;51680;49.806;18.774;2023-09-07T08:10:54;98226.78;;;36.01;33.71
41044;BME280;51680;49.806;18.774;2023-09-07T08:14:24;98220.28;;;35.91;32.96
41044;BME280;51680;49.806;18.774;2023-09-07T08:17:46;98229.56;;;34.49;34.90
41044;BME280;51680;49.806;18.774;2023-09-07T08:20:48;98232.81;;;34.21;36.14
41044;BME280;51680;49.806;18.774;2023-09-07T08:23:50;98231.59;;;33.81;37.02
41044;BME280;51680;49.806;18.774;2023-09-07T08:26:53;98227.44;;;32.99;38.86
41044;BME280;51680;49.806;18.774;2023-09-07T08:29:57;98230.63;;;33.20;38.47
41044;BME280;51680;49.806;18.774;2023-09-07T08:33:00;98224.56;;;33.49;38.11
41044;BME280;51680;49.806;18.774;2023-09-07T08:36:04;98237.06;;;33.50;38.18
41044;BME280;51680;49.806;18.774;2023-09-07T08:39:06;98224.75;;;33.54;38.69
41044;BME280;51680;49.806;18.774;2023-09-07T08:42:13;98231.16;;;33.35;38.71
41044;BME280;51680;49.806;18.774;2023-09-07T08:45:19;98217.25;;;33.25;37.63
41044;BME280;51680;49.806;18.774;2023-09-07T08:48:25;98226.91;;;33.15;37.82
41044;BME280;51680;49.806;18.774;2023-09-07T08:51:27;98224.03;;;33.10;38.38
41044;BME280;51680;49.806;18.774;2023-09-07T08:54:29;98221.47;;;32.90;38.13
41044;BME280;51680;49.806;18.774;2023-09-07T08:57:31;98220.75;;;32.70;38.98
41044;BME280;51680;49.806;18.774;2023-09-07T09:00:33;98230.31;;;32.73;39.93
41044;BME280;51680;49.806;18.774;2023-09-07T09:03:37;98230.38;;;32.60;39.38
41044;BME280;51680;49.806;18.774;2023-09-07T09:06:38;98228.63;;;32.34;39.55
41044;BME280;51680;49.806;18.774;2023-09-07T09:09:40;98222.78;;;32.37;39.53
41044;BME280;51680;49.806;18.774;2023-09-07T09:12:45;98221.41;;;32.02;40.66
41044;BME280;51680;49.806;18.774;2023-09-07T09:15:47;98228.72;;;31.95;40.59
41044;BME280;51680;49.806;18.774;2023-09-07T09:18:51;98233.09;;;31.96;41.38
41044;BME280;51680;49.806;18.774;2023-09-07T09:21:55;98230.66;;;31.36;41.20
41044;BME280;51680;49.806;18.774;2023-09-07T09:25:02;98221.47;;;31.05;40.24
41044;BME280;51680;49.806;18.774;2023-09-07T09:28:05;98234.94;;;30.85;40.64
41044;BME280;51680;49.806;18.774;2023-09-07T09:31:06;98228.50;;;30.86;41.00
41044;BME280;51680;49.806;18.774;2023-09-07T09:34:13;98221.84;;;30.82;41.96
41044;BME280;51680;49.806;18.774;2023-09-07T09:37:16;98218.72;;;30.79;41.33
41044;BME280;51680;49.806;18.774;2023-09-07T09:40:19;98228.88;;;30.70;42.54
41044;BME280;51680;49.806;18.774;2023-09-07T09:43:22;98224.59;;;30.35;42.72
41044;BME280;51680;49.806;18.774;2023-09-07T09:46:23;98226.44;;;29.94;43.99
41044;BME280;51680;49.806;18.774;2023-09-07T09:49:27;98215.75;;;30.07;43.40
41044;BME280;51680;49.806;18.774;2023-09-07T09:52:29;98217.94;;;29.57;44.51
41044;BME280;51680;49.806;18.774;2023-09-07T09:55:31;98216.75;;;29.44;44.37
41044;BME280;51680;49.806;18.774;2023-09-07T09:58:33;98216.19;;;29.49;44.65
41044;BME280;51680;49.806;18.774;2023-09-07T10:01:37;98217.31;;;29.06;45.68
41044;BME280;51680;49.806;18.774;2023-09-07T10:04:43;98217.41;;;28.77;46.95
41044;BME280;51680;49.806;18.774;2023-09-07T10:07:47;98212.91;;;28.63;46.85
41044;BME280;51680;49.806;18.774;2023-09-07T10:10:52;98217.50;;;28.69;46.80
41044;BME280;51680;49.806;18.774;2023-09-07T10:13:56;98205.31;;;28.52;48.62
41044;BME280;51680;49.806;18.774;2023-09-07T10:16:58;98213.81;;;28.70;47.86
41044;BME280;51680;49.806;18.774;2023-09-07T10:20:24;98206.75;;;28.69;46.14
41044;BME280;51680;49.806;18.774;2023-09-07T10:23:34;98206.59;;;28.20;48.83
41044;BME280;51680;49.806;18.774;2023-09-07T10:26:36;98200.44;;;28.26;48.85
41044;BME280;51680;49.806;18.774;2023-09-07T10:29:41;98205.25;;;28.10;47.80
41044;BME280;51680;49.806;18.774;2023-09-07T10:33:01;98204.47;;;28.16;49.20
41044;BME280;51680;49.806;18.774;2023-09-07T10:36:05;98201.97;;;28.00;47.70
41044;BME280;51680;49.806;18.774;2023-09-07T10:39:07;98199.16;;;27.87;48.47
41044;BME280;51680;49.806;18.774;2023-09-07T10:42:12;98195.53;;;27.80;47.66
41044;BME280;51680;49.806;18.774;2023-09-07T10:45:21;98193.91;;;27.71;49.83
41044;BME280;51680;49.806;18.774;2023-09-07T10:48:22;98200.50;;;27.54;50.39
41044;BME280;51680;49.806;18.774;2023-09-07T10:51:25;98189.84;;;27.46;50.81
41044;BME280;51680;49.806;18.774;2023-09-07T10:54:27;98191.59;;;27.39;51.28
41044;BME280;51680;49.806;18.774;2023-09-07T10:57:28;98189.84;;;27.46;52.95
41044;BME280;51680;49.806;18.774;2023-09-07T11:00:30;98190.75;;;27.24;52.15
41044;BME280;51680;49.806;18.774;2023-09-07T11:03:31;98183.84;;;27.07;50.94
41044;BME280;51680;49.806;18.774;2023-09-07T11:06:34;98179.38;;;26.99;50.92
41044;BME280;51680;49.806;18.774;2023-09-07T11:09:39;98174.53;;;26.80;53.09
41044;BME280;51680;49.806;18.774;2023-09-07T11:12:41;98184.09;;;26.75;52.64
41044;BME280;51680;49.806;18.774;2023-09-07T11:15:42;98183.59;;;26.49;54.17
41044;BME280;51680;49.806;18.774;2023-09-07T11:18:44;98178.47;;;26.39;52.57
41044;BME280;51680;49.806;18.774;2023-09-07T11:21:47;98189.84;;;26.11;56.21
41044;BME280;51680;49.806;18.774;2023-09-07T11:24:51;98186.59;;;26.23;58.37
41044;BME280;51680;49.806;18.774;2023-09-07T11:28:11;98187.69;;;26.37;54.07
41044;BME280;51680;49.806;18.774;2023-09-07T11:31:12;98191.34;;;26.44;52.84
41044;BME280;51680;49.806;18.774;2023-09-07T11:34:15;98185.72;;;26.31;52.16
41044;BME280;51680;49.806;18.774;2023-09-07T11:37:18;98180.75;;;26.28;52.20
41044;BME280;51680;49.806;18.774;2023-09-07T11:40:20;98185.56;;;26.32;55.33
41044;BME280;51680;49.806;18.774;2023-09-07T11:43:21;98195.56;;;26.08;54.39
41044;BME280;51680;49.806;18.774;2023-09-07T11:46:23;98175.59;;;26.18;54.46
41044;BME280;51680;49.806;18.774;2023-09-07T11:49:25;98192.25;;;25.98;54.02
41044;BME280;51680;49.806;18.774;2023-09-07T11:52:28;98201.28;;;25.50;54.78
41044;BME280;51680;49.806;18.774;2023-09-07T11:55:29;98195.38;;;25.63;58.57
41044;BME280;51680;49.806;18.774;2023-09-07T11:58:31;98181.53;;;25.59;55.90
41044;BME280;51680;49.806;18.774;2023-09-07T12:01:32;98186.41;;;25.86;55.39
41044;BME280;51680;49.806;18.774;2023-09-07T12:04:34;98187.97;;;25.81;55.99
41044;BME280;51680;49.806;18.774;2023-09-07T12:07:39;98189.94;;;25.95;56.54
41044;BME280;51680;49.806;18.774;2023-09-07T12:10:40;98181.56;;;25.90;57.24
41044;BME280;51680;49.806;18.774;2023-09-07T12:13:42;98178.13;;;25.73;56.56
41044;BME280;51680;49.806;18.774;2023-09-07T12:16:43;98180.25;;;25.86;58.53
41044;BME280;51680;49.806;18.774;2023-09-07T12:19:45;98177.53;;;25.94;55.75
41044;BME280;51680;49.806;18.774;2023-09-07T12:22:48;98173.03;;;25.94;53.97
41044;BME280;51680;49.806;18.774;2023-09-07T12:25:49;98169.50;;;26.02;54.36
41044;BME280;51680;49.806;18.774;2023-09-07T12:28:51;98169.81;;;25.99;54.29
41044;BME280;51680;49.806;18.774;2023-09-07T12:31:53;98170.19;;;25.88;55.79
41044;BME280;51680;49.806;18.774;2023-09-07T12:34:54;98169.34;;;25.95;54.36
41044;BME280;51680;49.806;18.774;2023-09-07T12:37:57;98171.84;;;25.97;56.27
41044;BME280;51680;49.806;18.774;2023-09-07T12:40:58;98165.53;;;25.82;54.88
41044;BME280;51680;49.806;18.774;2023-09-07T12:44:00;98159.13;;;25.99;56.83
41044;BME280;51680;49.806;18.774;2023-09-07T12:47:02;98164.47;;;25.99;55.10
41044;BME280;51680;49.806;18.774;2023-09-07T12:50:03;98175.50;;;25.57;55.53
41044;BME280;51680;49.806;18.774;2023-09-07T12:53:08;98162.56;;;25.77;55.12
41044;BME280;51680;49.806;18.774;2023-09-07T12:56:09;98155.78;;;25.89;56.62
41044;BME280;51680;49.806;18.774;2023-09-07T12:59:11;98153.78;;;25.91;55.46
41044;BME280;51680;49.806;18.774;2023-09-07T13:02:12;98151.69;;;25.78;56.02
41044;BME280;51680;49.806;18.774;2023-09-07T13:05:14;98156.50;;;25.83;57.19
41044;BME280;51680;49.806;18.774;2023-09-07T13:08:17;98140.09;;;25.86;56.44
41044;BME280;51680;49.806;18.774;2023-09-07T13:11:18;98144.78;;;25.84;55.16
41044;BME280;51680;49.806;18.774;2023-09-07T13:14:20;98162.25;;;25.72;56.41
41044;BME280;51680;49.806;18.774;2023-09-07T13:17:21;98145.59;;;25.46;57.19
41044;BME280;51680;49.806;18.774;2023-09-07T13:20:23;98143.06;;;25.52;58.65
41044;BME280;51680;49.806;18.774;2023-09-07T13:23:26;98151.09;;;25.60;57.88
41044;BME280;51680;49.806;18.774;2023-09-07T13:26:27;98158.09;;;25.61;57.84
41044;BME280;51680;49.806;18.774;2023-09-07T13:29:29;98149.50;;;25.74;57.67
41044;BME280;51680;49.806;18.774;2023-09-07T13:32:31;98154.53;;;25.77;56.21
41044;BME280;51680;49.806;18.774;2023-09-07T13:35:33;98156.44;;;25.52;60.18
41044;BME280;51680;49.806;18.774;2023-09-07T13:38:36;98141.88;;;25.63;56.95
41044;BME280;51680;49.806;18.774;2023-09-07T13:41:38;98152.88;;;25.76;57.57
41044;BME280;51680;49.806;18.774;2023-09-07T13:44:39;98142.16;;;25.76;56.94
41044;BME280;51680;49.806;18.774;2023-09-07T13:47:41;98147.16;;;25.79;57.27
41044;BME280;51680;49.806;18.774;2023-09-07T13:50:42;98143.16;;;25.75;58.53
41044;BME280;51680;49.806;18.774;2023-09-07T13:53:45;98134.44;;;25.81;58.94
41044;BME280;51680;49.806;18.774;2023-09-07T13:56:47;98127.03;;;25.91;57.96
41044;BME280;51680;49.806;18.774;2023-09-07T14:00:07;98130.06;;;25.88;56.50
41044;BME280;51680;49.806;18.774;2023-09-07T14:03:09;98133.09;;;25.85;57.65
41044;BME280;51680;49.806;18.774;2023-09-07T14:06:10;98134.06;;;25.84;57.59
41044;BME280;51680;49.806;18.774;2023-09-07T14:09:13;98131.63;;;25.74;59.05
41044;BME280;51680;49.806;18.774;2023-09-07T14:12:15;98119.16;;;25.59;58.13
41044;BME280;51680;49.806;18.774;2023-09-07T14:15:16;98122.16;;;25.56;56.43
41044;BME280;51680;49.806;18.774;2023-09-07T14:18:18;98113.50;;;25.54;56.88
41044;BME280;51680;49.806;18.774;2023-09-07T14:21:19;98125.84;;;25.55;57.39
41044;BME280;51680;49.806;18.774;2023-09-07T14:24:22;98120.16;;;25.58;57.69
41044;BME280;51680;49.806;18.774;2023-09-07T14:27:24;98120.50;;;25.55;57.53
41044;BME280;51680;49.806;18.774;2023-09-07T14:30:26;98129.22;;;25.57;57.75
41044;BME280;51680;49.806;18.774;2023-09-07T14:33:27;98117.81;;;25.55;57.53
41044;BME280;51680;49.806;18.774;2023-09-07T14:36:29;98129.94;;;25.43;57.64
41044;BME280;51680;49.806;18.774;2023-09-07T14:39:32;98119.59;;;25.16;58.38
41044;BME280;51680;49.806;18.774;2023-09-07T14:42:35;98119.59;;;25.08;58.25
41044;BME280;51680;49.806;18.774;2023-09-07T14:45:37;98112.59;;;25.23;57.25
41044;BME280;51680;49.806;18.774;2023-09-07T14:48:39;98113.75;;;25.20;56.66
41044;BME280;51680;49.806;18.774;2023-09-07T14:51:40;98123.94;;;25.17;57.53
41044;BME280;51680;49.806;18.774;2023-09-07T14:54:43;98115.41;;;25.21;56.66
41044;BME280;51680;49.806;18.774;2023-09-07T14:57:45;98115.09;;;25.08;57.09
41044;BME280;51680;49.806;18.774;2023-09-07T15:00:46;98127.63;;;25.16;58.31
41044;BME280;51680;49.806;18.774;2023-09-07T15:03:48;98121.94;;;25.11;56.55
41044;BME280;51680;49.806;18.774;2023-09-07T15:06:50;98109.59;;;25.02;57.17
41044;BME280;51680;49.806;18.774;2023-09-07T15:09:52;98120.97;;;24.96;56.59
41044;BME280;51680;49.806;18.774;2023-09-07T15:12:54;98112.59;;;25.15;57.71
41044;BME280;51680;49.806;18.774;2023-09-07T15:15:56;98111.91;;;25.13;56.74
41044;BME280;51680;49.806;18.774;2023-09-07T15:18:58;98113.94;;;25.11;55.44
41044;BME280;51680;49.806;18.774;2023-09-07T15:22:00;98107.75;;;25.10;55.30
41044;BME280;51680;49.806;18.774;2023-09-07T15:25:03;98107.94;;;25.09;56.28
41044;BME280;51680;49.806;18.774;2023-09-07T15:28:05;98108.25;;;25.06;55.62
41044;BME280;51680;49.806;18.774;2023-09-07T15:31:09;98100.09;;;24.99;55.85
41044;BME280;51680;49.806;18.774;2023-09-07T15:34:11;98104.63;;;24.83;55.90
41044;BME280;51680;49.806;18.774;2023-09-07T15:37:12;98102.97;;;24.82;56.88
41044;BME280;51680;49.806;18.774;2023-09-07T15:40:16;98107.66;;;24.72;57.33
41044;BME280;51680;49.806;18.774;2023-09-07T15:43:17;98108.66;;;24.63;57.75
41044;BME280;51680;49.806;18.774;2023-09-07T15:46:19;98107.63;;;24.56;58.22
41044;BME280;51680;49.806;18.774;2023-09-07T15:49:21;98107.13;;;24.52;58.88
41044;BME280;51680;49.806;18.774;2023-09-07T15:52:23;98103.13;;;24.56;59.61
41044;BME280;51680;49.806;18.774;2023-09-07T15:55:25;98103.31;;;24.47;60.50
41044;BME280;51680;49.806;18.774;2023-09-07T15:58:27;98110.97;;;24.50;60.70